createdAt,value
2023-02-26T00:01:32.809Z,4.53
2023-02-26T00:04:02.197Z,4.49
2023-02-26T00:06:30.531Z,4.47
2023-02-26T00:08:58.414Z,4.40
2023-02-26T00:11:27.925Z,4.39
2023-02-26T00:13:56.264Z,4.40
2023-02-26T00:16:28.854Z,4.39
2023-02-26T00:18:57.484Z,4.40
2023-02-26T00:21:27.007Z,4.41
2023-02-26T00:23:54.960Z,4.33
2023-02-26T00:26:24.311Z,4.36
2023-02-26T00:28:53.989Z,4.39
2023-02-26T00:31:24.869Z,4.40
2023-02-26T00:33:53.602Z,4.42
2023-02-26T00:36:24.857Z,4.41
2023-02-26T00:39:02.964Z,4.38
2023-02-26T00:41:31.345Z,4.43
2023-02-26T00:44:01.021Z,4.51
2023-02-26T00:46:41.014Z,4.54
2023-02-26T00:49:19.393Z,4.52
2023-02-26T00:51:50.556Z,4.52
2023-02-26T00:54:22.117Z,4.48
2023-02-26T00:56:50.611Z,4.51
2023-02-26T00:59:20.729Z,4.47
2023-02-26T01:01:49.039Z,4.36
2023-02-26T01:04:18.181Z,4.36
2023-02-26T01:06:48.258Z,4.37
2023-02-26T01:09:23.942Z,4.35
2023-02-26T01:11:52.684Z,4.39
2023-02-26T01:14:23.180Z,4.41
2023-02-26T01:16:57.473Z,4.43
2023-02-26T01:19:34.319Z,4.47
2023-02-26T01:22:09.354Z,4.51
2023-02-26T01:24:38.324Z,4.58
2023-02-26T01:27:06.457Z,4.58
2023-02-26T01:29:35.853Z,4.60
2023-02-26T01:32:09.783Z,4.58
2023-02-26T01:34:43.244Z,4.51
2023-02-26T01:37:22.747Z,4.57
2023-02-26T01:40:14.061Z,4.62
2023-02-26T01:42:45.580Z,4.53
2023-02-26T01:45:19.091Z,4.57
2023-02-26T01:47:52.759Z,4.62
2023-02-26T01:50:25.694Z,4.65
2023-02-26T01:53:18.428Z,4.71
2023-02-26T01:55:50.411Z,4.70
2023-02-26T01:58:19.123Z,4.71
2023-02-26T02:00:48.130Z,4.72
2023-02-26T02:03:16.021Z,4.66
2023-02-26T02:05:48.250Z,4.64
2023-02-26T02:08:17.229Z,4.65
2023-02-26T02:10:47.263Z,4.60
2023-02-26T02:13:23.272Z,4.51
2023-02-26T02:16:01.136Z,4.55
2023-02-26T02:18:38.669Z,4.55
2023-02-26T02:21:23.770Z,4.52
2023-02-26T02:23:56.780Z,4.57
2023-02-26T02:26:51.296Z,4.64
2023-02-26T02:29:57.240Z,4.66
2023-02-26T02:32:31.912Z,4.65
2023-02-26T02:35:05.864Z,4.67
2023-02-26T02:37:38.114Z,4.67
2023-02-26T02:40:08.726Z,4.66
2023-02-26T02:42:41.034Z,4.62
2023-02-26T02:45:12.662Z,4.62
2023-02-26T02:47:44.307Z,4.58
2023-02-26T02:50:18.477Z,4.58
2023-02-26T02:52:51.931Z,4.56
2023-02-26T02:55:23.638Z,4.52
2023-02-26T02:57:56.630Z,4.49
2023-02-26T03:00:25.563Z,4.56
2023-02-26T03:03:01.986Z,4.46
2023-02-26T03:05:29.701Z,4.44
2023-02-26T03:08:01.644Z,4.35
2023-02-26T03:10:29.812Z,4.35
2023-02-26T03:12:57.517Z,4.32
2023-02-26T03:15:34.816Z,4.33
2023-02-26T03:18:14.018Z,4.37
2023-02-26T03:20:54.364Z,4.32
2023-02-26T03:23:26.190Z,4.27
2023-02-26T03:25:57.606Z,4.29
2023-02-26T03:28:31.729Z,4.22
2023-02-26T03:31:03.898Z,4.21
2023-02-26T03:33:46.538Z,4.16
2023-02-26T03:36:19.699Z,4.09
2023-02-26T03:38:50.503Z,4.06
2023-02-26T03:41:23.209Z,4.05
2023-02-26T03:43:58.247Z,4.09
2023-02-26T03:46:30.746Z,4.04
2023-02-26T03:49:04.150Z,4.07
2023-02-26T03:51:32.254Z,4.05
2023-02-26T03:54:06.987Z,4.04
2023-02-26T03:56:40.292Z,4.04
2023-02-26T03:59:08.032Z,4.06
2023-02-26T04:01:41.322Z,4.07
2023-02-26T04:04:13.594Z,4.07
2023-02-26T04:06:42.813Z,3.96
2023-02-26T04:09:10.589Z,3.93
2023-02-26T04:11:39.851Z,4.01
2023-02-26T04:14:07.550Z,4.05
2023-02-26T04:16:35.232Z,3.93
2023-02-26T04:19:02.922Z,3.85
2023-02-26T04:21:32.005Z,3.79
2023-02-26T04:23:59.662Z,3.81
2023-02-26T04:26:27.477Z,3.85
2023-02-26T04:28:55.174Z,3.82
2023-02-26T04:31:22.987Z,3.86
2023-02-26T04:33:50.660Z,3.87
2023-02-26T04:36:18.410Z,3.88
2023-02-26T04:38:47.418Z,3.95
2023-02-26T04:41:15.081Z,3.96
2023-02-26T04:43:42.792Z,3.98
2023-02-26T04:46:10.541Z,3.96
2023-02-26T04:48:38.345Z,4.01
2023-02-26T04:51:06.221Z,3.84
2023-02-26T04:53:33.843Z,3.68
2023-02-26T04:56:03.003Z,3.67
2023-02-26T04:58:30.715Z,3.74
2023-02-26T05:00:58.830Z,3.72
2023-02-26T05:03:26.477Z,3.66
2023-02-26T05:05:54.066Z,3.71
2023-02-26T05:08:21.725Z,3.74
2023-02-26T05:10:49.336Z,3.72
2023-02-26T05:13:18.484Z,3.59
2023-02-26T05:15:46.586Z,3.59
2023-02-26T05:18:14.444Z,3.63
2023-02-26T05:20:42.319Z,3.65
2023-02-26T05:23:09.932Z,3.70
2023-02-26T05:25:37.556Z,3.72
2023-02-26T05:28:05.524Z,3.73
2023-02-26T05:30:34.618Z,3.73
2023-02-26T05:33:02.210Z,3.77
2023-02-26T05:35:29.867Z,3.85
2023-02-26T05:37:57.499Z,3.84
2023-02-26T05:40:25.544Z,3.88
2023-02-26T05:42:53.215Z,3.98
2023-02-26T05:45:20.843Z,3.95
2023-02-26T05:47:49.853Z,3.93
2023-02-26T05:50:17.786Z,3.93
2023-02-26T05:52:45.420Z,3.95
2023-02-26T05:55:13.648Z,3.89
2023-02-26T05:57:41.333Z,3.89
2023-02-26T06:00:10.745Z,3.87
2023-02-26T06:02:38.385Z,3.82
2023-02-26T06:05:09.070Z,3.79
2023-02-26T06:07:36.739Z,3.74
2023-02-26T06:10:04.639Z,3.71
2023-02-26T06:12:32.352Z,3.61
2023-02-26T06:15:00.117Z,3.65
2023-02-26T06:17:28.006Z,3.55
2023-02-26T06:19:55.624Z,3.51
2023-02-26T06:22:24.649Z,3.47
2023-02-26T06:24:52.311Z,3.45
2023-02-26T06:27:19.994Z,3.45
2023-02-26T06:29:47.677Z,3.42
2023-02-26T06:32:15.581Z,3.35
2023-02-26T06:34:43.271Z,3.31
2023-02-26T06:37:11.047Z,3.36
2023-02-26T06:39:41.284Z,3.40
2023-02-26T06:42:09.086Z,3.18
2023-02-26T06:44:36.689Z,3.19
2023-02-26T06:47:04.620Z,3.21
2023-02-26T06:49:32.503Z,3.29
2023-02-26T06:52:00.419Z,3.34
2023-02-26T06:54:28.221Z,3.37
2023-02-26T06:56:57.874Z,3.38
2023-02-26T06:59:25.937Z,3.48
2023-02-26T07:01:53.628Z,3.49
2023-02-26T07:04:23.759Z,3.48
2023-02-26T07:06:51.588Z,3.61
2023-02-26T07:09:20.409Z,3.65
2023-02-26T07:11:48.164Z,3.65
2023-02-26T07:14:17.458Z,3.62
2023-02-26T07:16:45.228Z,3.62
2023-02-26T07:19:13.033Z,3.66
2023-02-26T07:21:41.120Z,3.72
2023-02-26T07:24:09.517Z,3.76
2023-02-26T07:26:39.327Z,3.76
2023-02-26T07:29:07.120Z,3.87
2023-02-26T07:31:36.768Z,3.93
2023-02-26T07:34:04.565Z,3.96
2023-02-26T07:36:32.330Z,4.00
2023-02-26T07:39:00.106Z,4.10
2023-02-26T07:41:28.214Z,4.30
2023-02-26T07:43:56.135Z,4.37
2023-02-26T07:46:24.023Z,4.53
2023-02-26T07:48:53.274Z,4.56
2023-02-26T07:51:21.115Z,4.50
2023-02-26T07:53:48.705Z,4.49
2023-02-26T07:56:16.423Z,4.57
2023-02-26T07:58:44.153Z,4.63
2023-02-26T08:01:11.912Z,4.60
2023-02-26T08:03:39.837Z,4.56
2023-02-26T08:06:10.060Z,4.51
2023-02-26T08:08:37.774Z,4.35
2023-02-26T08:11:05.737Z,4.36
2023-02-26T08:13:33.886Z,4.39
2023-02-26T08:16:01.669Z,4.27
2023-02-26T08:18:29.710Z,4.23
2023-02-26T08:20:57.368Z,4.22
2023-02-26T08:23:27.663Z,4.30
2023-02-26T08:26:01.448Z,4.40
2023-02-26T08:28:29.145Z,4.48
2023-02-26T08:30:56.930Z,4.72
2023-02-26T08:33:25.796Z,4.92
2023-02-26T08:35:54.141Z,4.97
2023-02-26T08:38:22.116Z,5.05
2023-02-26T08:40:52.761Z,5.11
2023-02-26T08:43:20.833Z,5.06
2023-02-26T08:45:48.722Z,5.08
2023-02-26T08:48:16.468Z,4.99
2023-02-26T08:50:44.119Z,5.18
2023-02-26T08:53:11.801Z,5.26
2023-02-26T08:55:39.470Z,5.34
2023-02-26T08:58:08.773Z,5.66
2023-02-26T09:00:36.466Z,6.01
2023-02-26T09:03:04.256Z,6.32
2023-02-26T09:05:32.054Z,7.04
2023-02-26T09:07:59.819Z,8.11
2023-02-26T09:10:27.927Z,8.68
2023-02-26T09:12:58.521Z,8.30
2023-02-26T09:15:27.667Z,7.56
2023-02-26T09:17:55.468Z,7.08
2023-02-26T09:20:23.199Z,6.90
2023-02-26T09:22:50.917Z,6.85
2023-02-26T09:25:18.780Z,7.29
2023-02-26T09:27:46.432Z,7.56
2023-02-26T09:30:15.344Z,7.70
2023-02-26T09:32:44.656Z,7.61
2023-02-26T09:35:12.722Z,7.10
2023-02-26T09:37:40.483Z,6.83
2023-02-26T09:40:12.292Z,6.81
2023-02-26T09:42:54.326Z,6.92
2023-02-26T09:45:28.357Z,7.53
2023-02-26T09:47:59.203Z,7.83
2023-02-26T09:50:33.217Z,7.44
2023-02-26T09:53:09.593Z,7.30
2023-02-26T09:55:43.576Z,7.04
2023-02-26T09:58:19.151Z,7.06
2023-02-26T10:00:54.536Z,8.80
2023-02-26T10:03:31.460Z,8.92
2023-02-26T10:06:19.442Z,9.44
2023-02-26T10:08:57.289Z,10.41
2023-02-26T10:11:31.510Z,13.76
2023-02-26T10:14:04.889Z,13.93
2023-02-26T10:16:39.462Z,13.29
2023-02-26T10:19:12.541Z,12.24
2023-02-26T10:21:44.951Z,11.05
2023-02-26T10:24:17.264Z,10.34
2023-02-26T10:26:47.034Z,9.77
2023-02-26T10:29:23.382Z,9.20
2023-02-26T10:32:02.828Z,8.84
2023-02-26T10:34:35.916Z,8.42
2023-02-26T10:37:14.392Z,8.42
2023-02-26T10:39:56.169Z,8.38
2023-02-26T10:42:27.109Z,9.71
2023-02-26T10:45:08.741Z,10.76
2023-02-26T10:47:47.542Z,10.29
2023-02-26T10:50:21.516Z,9.73
2023-02-26T10:52:53.766Z,9.05
2023-02-26T10:55:34.435Z,8.50
2023-02-26T10:58:06.724Z,8.04
2023-02-26T11:00:36.331Z,7.68
2023-02-26T11:03:06.609Z,7.42
2023-02-26T11:05:36.341Z,7.48
2023-02-26T11:08:07.035Z,7.43
2023-02-26T11:10:42.675Z,7.18
2023-02-26T11:13:11.214Z,7.58
2023-02-26T11:15:39.136Z,7.95
2023-02-26T11:18:10.336Z,7.80
2023-02-26T11:20:43.005Z,7.68
2023-02-26T11:23:14.511Z,7.48
2023-02-26T11:25:42.415Z,7.89
2023-02-26T11:28:30.884Z,8.33
2023-02-26T11:31:02.990Z,8.36
2023-02-26T11:33:38.160Z,8.27
2023-02-26T11:36:13.074Z,8.13
2023-02-26T11:38:41.439Z,7.82
2023-02-26T11:41:10.148Z,7.54
2023-02-26T11:43:44.780Z,7.49
2023-02-26T11:46:13.813Z,7.19
2023-02-26T11:48:45.500Z,7.03
2023-02-26T11:51:16.854Z,7.02
2023-02-26T11:53:50.978Z,7.02
2023-02-26T11:56:26.960Z,7.01
2023-02-26T11:58:56.087Z,6.84
2023-02-26T12:01:29.196Z,6.89
2023-02-26T12:04:00.814Z,7.01
2023-02-26T12:06:30.845Z,7.15
2023-02-26T12:08:58.695Z,7.22
2023-02-26T12:12:06.194Z,7.45
2023-02-26T12:14:48.436Z,7.55
2023-02-26T12:17:36.225Z,7.39
2023-02-26T12:20:17.619Z,7.56
2023-02-26T12:22:55.908Z,7.66
2023-02-26T12:25:32.588Z,7.57
2023-02-26T12:28:20.105Z,7.39
2023-02-26T12:31:17.310Z,7.30
2023-02-26T12:33:56.343Z,7.23
2023-02-26T12:36:48.364Z,7.09
2023-02-26T12:39:33.452Z,6.93
2023-02-26T12:42:14.062Z,7.00
2023-02-26T12:44:58.053Z,7.07
2023-02-26T12:47:40.343Z,7.03
2023-02-26T12:50:22.952Z,7.09
2023-02-26T12:53:06.335Z,7.30
2023-02-26T12:55:45.517Z,7.29
2023-02-26T12:58:35.602Z,7.12
2023-02-26T13:01:13.991Z,7.06
2023-02-26T13:03:58.574Z,7.28
2023-02-26T13:06:52.367Z,7.20
2023-02-26T13:09:32.213Z,7.20
2023-02-26T13:12:19.837Z,7.10
2023-02-26T13:14:54.767Z,7.22
2023-02-26T13:17:29.371Z,7.33
2023-02-26T13:20:01.616Z,7.28
2023-02-26T13:22:33.413Z,7.16
2023-02-26T13:25:05.077Z,7.09
2023-02-26T13:27:38.591Z,7.14
2023-02-26T13:30:19.807Z,7.15
2023-02-26T13:32:49.996Z,7.21
2023-02-26T13:35:22.201Z,7.33
2023-02-26T13:37:52.730Z,7.40
2023-02-26T13:40:47.477Z,7.24
2023-02-26T13:43:34.811Z,7.32
2023-02-26T13:46:15.175Z,7.47
2023-02-26T13:48:53.916Z,7.42
2023-02-26T13:51:31.616Z,7.42
2023-02-26T13:54:02.203Z,7.30
2023-02-26T13:56:53.405Z,7.28
2023-02-26T13:59:48.326Z,7.29
2023-02-26T14:02:45.584Z,7.34
2023-02-26T14:05:47.173Z,7.38
2023-02-26T14:08:28.403Z,7.38
2023-02-26T14:10:59.670Z,7.34
2023-02-26T14:13:36.563Z,7.08
2023-02-26T14:16:13.853Z,6.89
2023-02-26T14:18:51.942Z,6.78
2023-02-26T14:21:37.106Z,6.73
2023-02-26T14:24:14.580Z,6.83
2023-02-26T14:26:47.272Z,6.83
2023-02-26T14:29:20.819Z,6.83
2023-02-26T14:32:14.015Z,6.77
2023-02-26T14:34:50.627Z,6.67
2023-02-26T14:37:22.746Z,6.62
2023-02-26T14:39:56.358Z,6.62
2023-02-26T14:42:32.144Z,6.69
2023-02-26T14:45:10.116Z,6.71
2023-02-26T14:47:39.745Z,6.77
2023-02-26T14:50:08.601Z,6.68
2023-02-26T14:52:52.913Z,6.61
2023-02-26T14:55:45.530Z,6.53
2023-02-26T14:58:27.928Z,6.48
2023-02-26T15:01:16.059Z,6.45
2023-02-26T15:04:15.039Z,6.33
2023-02-26T15:06:58.896Z,6.33
2023-02-26T15:09:36.740Z,6.38
2023-02-26T15:12:20.519Z,6.41
2023-02-26T15:15:03.856Z,6.35
2023-02-26T15:17:45.514Z,6.30
2023-02-26T15:20:25.036Z,6.18
2023-02-26T15:23:06.808Z,6.15
2023-02-26T15:25:37.607Z,6.14
2023-02-26T15:28:07.882Z,6.03
2023-02-26T15:30:36.136Z,6.08
2023-02-26T15:33:08.687Z,6.06
2023-02-26T15:35:37.707Z,6.18
2023-02-26T15:38:05.850Z,6.32
2023-02-26T15:40:37.366Z,6.21
2023-02-26T15:43:07.882Z,6.14
2023-02-26T15:45:38.806Z,6.13
2023-02-26T15:48:08.768Z,6.09
2023-02-26T15:50:42.223Z,6.13
2023-02-26T15:53:14.100Z,6.16
2023-02-26T15:55:52.648Z,6.17
2023-02-26T15:58:22.984Z,6.13
2023-02-26T16:00:55.003Z,6.13
2023-02-26T16:03:28.234Z,6.02
2023-02-26T16:05:59.306Z,5.98
2023-02-26T16:08:27.460Z,5.95
2023-02-26T16:10:57.718Z,5.94
2023-02-26T16:13:31.039Z,5.95
2023-02-26T16:16:05.743Z,5.96
2023-02-26T16:18:35.014Z,5.94
2023-02-26T16:21:08.670Z,5.90
2023-02-26T16:23:44.831Z,5.97
2023-02-26T16:26:17.958Z,5.92
2023-02-26T16:28:48.733Z,5.89
2023-02-26T16:31:19.822Z,5.90
2023-02-26T16:33:55.474Z,5.92
2023-02-26T16:36:27.357Z,5.91
2023-02-26T16:39:02.738Z,5.88
2023-02-26T16:41:36.049Z,5.82
2023-02-26T16:44:05.929Z,5.73
2023-02-26T16:46:43.565Z,5.74
2023-02-26T16:49:18.464Z,5.74
2023-02-26T16:51:49.047Z,5.74
2023-02-26T16:54:20.988Z,5.73
2023-02-26T16:56:52.174Z,5.68
2023-02-26T16:59:23.356Z,5.65
2023-02-26T17:01:54.994Z,5.60
2023-02-26T17:04:26.806Z,5.62
2023-02-26T17:06:56.679Z,5.70
2023-02-26T17:09:31.906Z,5.64
2023-02-26T17:12:12.275Z,5.67
2023-02-26T17:14:42.191Z,5.65
2023-02-26T17:17:10.514Z,5.65
2023-02-26T17:19:38.515Z,5.67
2023-02-26T17:22:18.408Z,5.64
2023-02-26T17:24:47.545Z,5.70
2023-02-26T17:27:18.802Z,5.68
2023-02-26T17:29:50.854Z,5.69
2023-02-26T17:32:20.852Z,5.75
2023-02-26T17:34:48.650Z,5.81
2023-02-26T17:37:17.720Z,5.80
2023-02-26T17:39:46.071Z,5.79
2023-02-26T17:42:16.316Z,5.79
2023-02-26T17:44:44.244Z,5.69
2023-02-26T17:47:16.611Z,5.59
2023-02-26T17:49:44.483Z,5.58
2023-02-26T17:52:12.129Z,5.50
2023-02-26T17:54:41.261Z,5.40
2023-02-26T17:57:16.464Z,5.35
2023-02-26T17:59:44.171Z,5.37
2023-02-26T18:02:17.990Z,5.40
2023-02-26T18:04:45.711Z,5.34
2023-02-26T18:07:16.339Z,5.21
2023-02-26T18:09:45.865Z,5.17
2023-02-26T18:12:15.592Z,5.11
2023-02-26T18:14:45.358Z,5.07
2023-02-26T18:17:14.581Z,5.16
2023-02-26T18:19:42.518Z,5.25
2023-02-26T18:22:14.100Z,5.26
2023-02-26T18:24:41.855Z,5.30
2023-02-26T18:27:14.691Z,5.22
2023-02-26T18:29:42.702Z,5.23
2023-02-26T18:32:14.547Z,5.24
2023-02-26T18:34:42.672Z,5.17
2023-02-26T18:37:13.513Z,5.12
2023-02-26T18:39:41.373Z,5.11
2023-02-26T18:42:20.349Z,5.13
2023-02-26T18:44:48.191Z,5.21
2023-02-26T18:47:16.413Z,5.23
2023-02-26T18:49:44.208Z,5.32
2023-02-26T18:52:12.457Z,5.32
2023-02-26T18:54:40.594Z,5.41
2023-02-26T18:57:09.882Z,5.38
2023-02-26T18:59:38.893Z,5.39
2023-02-26T19:02:10.967Z,5.33
2023-02-26T19:04:38.788Z,5.43
2023-02-26T19:07:06.605Z,5.49
2023-02-26T19:09:35.083Z,5.52
2023-02-26T19:12:03.537Z,5.44
2023-02-26T19:14:31.208Z,5.44
2023-02-26T19:17:00.286Z,5.43
2023-02-26T19:19:28.654Z,5.39
2023-02-26T19:21:57.734Z,5.37
2023-02-26T19:24:25.532Z,5.37
2023-02-26T19:26:53.128Z,5.26
2023-02-26T19:29:21.418Z,5.20
2023-02-26T19:31:49.327Z,5.23
2023-02-26T19:34:18.482Z,5.21
2023-02-26T19:36:48.132Z,5.14
2023-02-26T19:39:17.344Z,5.10
2023-02-26T19:41:45.858Z,5.05
2023-02-26T19:44:13.535Z,4.92
2023-02-26T19:46:42.108Z,4.91
2023-02-26T19:49:10.076Z,4.78
2023-02-26T19:51:39.815Z,4.80
2023-02-26T19:54:07.776Z,4.77
2023-02-26T19:56:35.529Z,4.70
2023-02-26T19:59:03.688Z,4.68
2023-02-26T20:01:31.938Z,4.70
2023-02-26T20:04:00.872Z,4.68
2023-02-26T20:06:29.087Z,4.67
2023-02-26T20:08:58.115Z,4.58
2023-02-26T20:11:26.106Z,4.60
2023-02-26T20:13:53.996Z,4.67
2023-02-26T20:16:21.952Z,4.64
2023-02-26T20:18:49.656Z,4.59
2023-02-26T20:21:17.267Z,4.57
2023-02-26T20:23:45.429Z,4.55
2023-02-26T20:26:16.742Z,4.54
2023-02-26T20:28:44.840Z,4.42
2023-02-26T20:31:12.980Z,4.40
2023-02-26T20:33:40.750Z,4.34
2023-02-26T20:36:10.192Z,4.44
2023-02-26T20:38:38.606Z,4.49
2023-02-26T20:41:06.670Z,4.43
2023-02-26T20:43:36.307Z,4.46
2023-02-26T20:46:04.628Z,4.39
2023-02-26T20:48:32.264Z,4.37
2023-02-26T20:51:01.115Z,4.40
2023-02-26T20:53:29.299Z,4.43
2023-02-26T20:55:56.975Z,4.49
2023-02-26T20:58:24.711Z,4.49
2023-02-26T21:00:57.971Z,4.52
2023-02-26T21:03:26.162Z,4.59
2023-02-26T21:05:54.128Z,4.56
2023-02-26T21:08:22.100Z,4.57
2023-02-26T21:10:51.134Z,4.50
2023-02-26T21:13:19.140Z,4.43
2023-02-26T21:15:46.928Z,4.43
2023-02-26T21:18:16.119Z,4.30
2023-02-26T21:20:44.017Z,4.25
2023-02-26T21:23:11.887Z,4.22
2023-02-26T21:25:40.062Z,4.20
2023-02-26T21:28:07.828Z,4.15
2023-02-26T21:30:35.656Z,4.03
2023-02-26T21:33:03.458Z,4.07
2023-02-26T21:35:32.617Z,4.04
2023-02-26T21:38:00.425Z,4.08
2023-02-26T21:40:28.145Z,4.05
2023-02-26T21:42:55.753Z,4.00
2023-02-26T21:45:23.696Z,3.98
2023-02-26T21:47:51.578Z,4.02
2023-02-26T21:50:19.386Z,4.09
2023-02-26T21:52:48.618Z,4.06
2023-02-26T21:55:16.366Z,4.11
2023-02-26T21:57:44.162Z,4.06
2023-02-26T22:00:13.093Z,4.04
2023-02-26T22:02:42.383Z,3.91
2023-02-26T22:05:11.427Z,3.87
2023-02-26T22:07:40.039Z,3.91
2023-02-26T22:10:11.998Z,3.95
2023-02-26T22:12:39.882Z,3.94
2023-02-26T22:15:08.747Z,3.77
2023-02-26T22:17:36.443Z,3.76
2023-02-26T22:20:09.774Z,3.80
2023-02-26T22:22:38.003Z,3.85
2023-02-26T22:25:06.791Z,3.94
2023-02-26T22:27:35.875Z,3.86
2023-02-26T22:30:03.581Z,3.92
2023-02-26T22:32:31.317Z,3.91
2023-02-26T22:34:59.379Z,3.86
2023-02-26T22:37:26.986Z,3.78
2023-02-26T22:39:54.734Z,3.74
2023-02-26T22:42:22.396Z,3.71
2023-02-26T22:44:51.512Z,3.64
2023-02-26T22:47:19.181Z,3.73
2023-02-26T22:49:46.857Z,3.73
2023-02-26T22:52:14.677Z,3.77
2023-02-26T22:54:42.392Z,3.81
2023-02-26T22:57:10.202Z,3.79
2023-02-26T22:59:37.935Z,3.80
2023-02-26T23:02:06.996Z,3.88
2023-02-26T23:04:34.824Z,3.78
2023-02-26T23:07:02.601Z,3.72
2023-02-26T23:09:30.294Z,3.68
2023-02-26T23:11:58.009Z,3.73
2023-02-26T23:14:25.617Z,3.67
2023-02-26T23:16:53.275Z,3.63
2023-02-26T23:19:22.418Z,3.67
2023-02-26T23:21:50.099Z,3.65
2023-02-26T23:24:17.864Z,3.62
2023-02-26T23:26:45.934Z,3.57
2023-02-26T23:29:13.539Z,3.58
2023-02-26T23:31:41.815Z,3.51
2023-02-26T23:34:10.942Z,3.55
2023-02-26T23:36:40.021Z,3.54
2023-02-26T23:39:08.603Z,3.52
2023-02-26T23:41:36.702Z,3.51
2023-02-26T23:44:04.314Z,3.44
2023-02-26T23:46:32.132Z,3.46
2023-02-26T23:48:59.908Z,3.45
2023-02-26T23:51:27.755Z,3.46
2023-02-26T23:53:56.937Z,3.50
2023-02-26T23:56:24.683Z,3.46
2023-02-26T23:58:53.024Z,3.41
